sensor_id;sensor_type;location;lat;lon;timestamp;temperature;humidity
31309;DHT22;17936;52.446;10.840;2023-06-22T00:01:53;19.70;99.90
31309;DHT22;17936;52.446;10.840;2023-06-22T00:04:18;19.70;99.90
31309;DHT22;17936;52.446;10.840;2023-06-22T00:06:44;19.70;99.90
31309;DHT22;17936;52.446;10.840;2023-06-22T00:09:09;19.50;99.90
31309;DHT22;17936;52.446;10.840;2023-06-22T00:11:36;19.20;99.90
31309;DHT22;17936;52.446;10.840;2023-06-22T00:14:02;18.90;99.90
31309;DHT22;17936;52.446;10.840;2023-06-22T00:16:28;19.20;99.90
31309;DHT22;17936;52.446;10.840;2023-06-22T00:18:54;19.40;99.90
31309;DHT22;17936;52.446;10.840;2023-06-22T00:21:19;19.30;99.90
31309;DHT22;17936;52.446;10.840;2023-06-22T00:23:47;19.30;99.90
31309;DHT22;17936;52.446;10.840;2023-06-22T00:26:13;19.40;99.90
31309;DHT22;17936;52.446;10.840;2023-06-22T00:28:39;19.40;99.90
31309;DHT22;17936;52.446;10.840;2023-06-22T00:31:05;19.30;99.90
31309;DHT22;17936;52.446;10.840;2023-06-22T00:33:30;19.30;99.90
31309;DHT22;17936;52.446;10.840;2023-06-22T00:35:57;19.30;99.90
31309;DHT22;17936;52.446;10.840;2023-06-22T00:38:22;19.40;99.90
31309;DHT22;17936;52.446;10.840;2023-06-22T00:40:48;19.50;99.90
31309;DHT22;17936;52.446;10.840;2023-06-22T00:43:13;19.40;99.90
31309;DHT22;17936;52.446;10.840;2023-06-22T00:45:39;19.10;99.90
31309;DHT22;17936;52.446;10.840;2023-06-22T00:48:06;19.20;99.90
31309;DHT22;17936;52.446;10.840;2023-06-22T00:50:33;18.70;99.90
31309;DHT22;17936;52.446;10.840;2023-06-22T00:53:03;18.80;99.90
31309;DHT22;17936;52.446;10.840;2023-06-22T00:55:43;18.90;99.90
31309;DHT22;17936;52.446;10.840;2023-06-22T00:58:09;19.00;99.90
31309;DHT22;17936;52.446;10.840;2023-06-22T01:00:36;19.00;99.90
31309;DHT22;17936;52.446;10.840;2023-06-22T01:03:03;19.00;99.90
31309;DHT22;17936;52.446;10.840;2023-06-22T01:05:29;18.70;99.90
31309;DHT22;17936;52.446;10.840;2023-06-22T01:08:08;18.70;99.90
31309;DHT22;17936;52.446;10.840;2023-06-22T01:10:44;18.80;99.90
31309;DHT22;17936;52.446;10.840;2023-06-22T01:13:18;18.90;99.90
31309;DHT22;17936;52.446;10.840;2023-06-22T01:15:53;18.80;99.90
31309;DHT22;17936;52.446;10.840;2023-06-22T01:18:22;18.90;99.90
31309;DHT22;17936;52.446;10.840;2023-06-22T01:20:54;18.80;99.90
31309;DHT22;17936;52.446;10.840;2023-06-22T01:23:32;18.40;99.90
31309;DHT22;17936;52.446;10.840;2023-06-22T01:29:04;18.20;99.90
31309;DHT22;17936;52.446;10.840;2023-06-22T01:31:29;18.50;99.90
31309;DHT22;17936;52.446;10.840;2023-06-22T01:34:00;18.50;99.90
31309;DHT22;17936;52.446;10.840;2023-06-22T01:36:27;18.50;99.90
31309;DHT22;17936;52.446;10.840;2023-06-22T01:38:53;18.50;99.90
31309;DHT22;17936;52.446;10.840;2023-06-22T01:41:20;18.40;99.90
31309;DHT22;17936;52.446;10.840;2023-06-22T01:43:47;18.40;99.90
31309;DHT22;17936;52.446;10.840;2023-06-22T01:46:13;18.30;99.90
31309;DHT22;17936;52.446;10.840;2023-06-22T01:48:40;18.10;99.90
31309;DHT22;17936;52.446;10.840;2023-06-22T01:51:06;18.30;99.90
31309;DHT22;17936;52.446;10.840;2023-06-22T01:53:31;18.30;99.90
31309;DHT22;17936;52.446;10.840;2023-06-22T01:55:57;18.10;99.90
31309;DHT22;17936;52.446;10.840;2023-06-22T01:58:28;18.30;99.90
31309;DHT22;17936;52.446;10.840;2023-06-22T02:01:09;18.30;99.90
31309;DHT22;17936;52.446;10.840;2023-06-22T02:03:38;18.30;99.90
31309;DHT22;17936;52.446;10.840;2023-06-22T02:06:10;18.30;99.90
31309;DHT22;17936;52.446;10.840;2023-06-22T02:08:47;18.30;99.90
31309;DHT22;17936;52.446;10.840;2023-06-22T02:11:15;18.10;99.90
31309;DHT22;17936;52.446;10.840;2023-06-22T02:13:41;17.70;99.90
31309;DHT22;17936;52.446;10.840;2023-06-22T02:16:10;17.40;99.90
31309;DHT22;17936;52.446;10.840;2023-06-22T02:18:36;17.70;99.90
31309;DHT22;17936;52.446;10.840;2023-06-22T02:21:02;17.60;99.90
31309;DHT22;17936;52.446;10.840;2023-06-22T02:23:28;17.50;99.90
31309;DHT22;17936;52.446;10.840;2023-06-22T02:25:54;17.70;99.90
31309;DHT22;17936;52.446;10.840;2023-06-22T02:28:19;17.90;99.90
31309;DHT22;17936;52.446;10.840;2023-06-22T02:30:45;17.90;99.90
31309;DHT22;17936;52.446;10.840;2023-06-22T02:33:10;17.80;99.90
31309;DHT22;17936;52.446;10.840;2023-06-22T02:35:36;18.00;99.90
31309;DHT22;17936;52.446;10.840;2023-06-22T02:38:02;17.90;99.90
31309;DHT22;17936;52.446;10.840;2023-06-22T02:40:29;17.60;99.90
31309;DHT22;17936;52.446;10.840;2023-06-22T02:42:55;17.70;99.90
31309;DHT22;17936;52.446;10.840;2023-06-22T02:45:23;17.70;99.90
31309;DHT22;17936;52.446;10.840;2023-06-22T02:47:49;17.90;99.90
31309;DHT22;17936;52.446;10.840;2023-06-22T02:50:14;17.80;99.90
31309;DHT22;17936;52.446;10.840;2023-06-22T02:52:40;17.70;99.90
31309;DHT22;17936;52.446;10.840;2023-06-22T02:55:06;17.80;99.90
31309;DHT22;17936;52.446;10.840;2023-06-22T02:57:32;17.90;99.90
31309;DHT22;17936;52.446;10.840;2023-06-22T02:59:58;17.80;99.90
31309;DHT22;17936;52.446;10.840;2023-06-22T03:02:24;17.30;99.90
31309;DHT22;17936;52.446;10.840;2023-06-22T03:04:51;17.00;99.90
31309;DHT22;17936;52.446;10.840;2023-06-22T03:07:19;17.30;99.90
31309;DHT22;17936;52.446;10.840;2023-06-22T03:09:45;17.50;99.90
31309;DHT22;17936;52.446;10.840;2023-06-22T03:12:10;17.70;99.90
31309;DHT22;17936;52.446;10.840;2023-06-22T03:14:36;17.60;99.90
31309;DHT22;17936;52.446;10.840;2023-06-22T03:17:02;17.60;99.90
31309;DHT22;17936;52.446;10.840;2023-06-22T03:19:29;17.70;99.90
31309;DHT22;17936;52.446;10.840;2023-06-22T03:21:57;17.80;99.90
31309;DHT22;17936;52.446;10.840;2023-06-22T03:24:22;17.70;99.90
31309;DHT22;17936;52.446;10.840;2023-06-22T03:26:48;17.60;99.90
31309;DHT22;17936;52.446;10.840;2023-06-22T03:29:13;17.60;99.90
31309;DHT22;17936;52.446;10.840;2023-06-22T03:31:39;17.80;99.90
31309;DHT22;17936;52.446;10.840;2023-06-22T03:34:04;17.80;99.90
31309;DHT22;17936;52.446;10.840;2023-06-22T03:36:30;17.40;99.90
31309;DHT22;17936;52.446;10.840;2023-06-22T03:38:55;17.20;99.90
31309;DHT22;17936;52.446;10.840;2023-06-22T03:41:21;17.00;99.90
31309;DHT22;17936;52.446;10.840;2023-06-22T03:43:46;17.00;99.90
31309;DHT22;17936;52.446;10.840;2023-06-22T03:46:12;17.40;99.90
31309;DHT22;17936;52.446;10.840;2023-06-22T03:48:38;17.70;99.90
31309;DHT22;17936;52.446;10.840;2023-06-22T03:51:03;17.70;99.90
31309;DHT22;17936;52.446;10.840;2023-06-22T03:53:29;17.90;99.90
31309;DHT22;17936;52.446;10.840;2023-06-22T03:55:55;17.80;99.90
31309;DHT22;17936;52.446;10.840;2023-06-22T03:58:21;17.60;99.90
31309;DHT22;17936;52.446;10.840;2023-06-22T04:00:48;17.40;99.90
31309;DHT22;17936;52.446;10.840;2023-06-22T04:03:14;17.10;99.90
31309;DHT22;17936;52.446;10.840;2023-06-22T04:05:41;17.60;99.90
31309;DHT22;17936;52.446;10.840;2023-06-22T04:08:06;17.70;99.90
31309;DHT22;17936;52.446;10.840;2023-06-22T04:10:32;17.60;99.90
31309;DHT22;17936;52.446;10.840;2023-06-22T04:12:57;17.70;99.90
31309;DHT22;17936;52.446;10.840;2023-06-22T04:15:23;17.70;99.90
31309;DHT22;17936;52.446;10.840;2023-06-22T04:17:48;17.60;99.90
31309;DHT22;17936;52.446;10.840;2023-06-22T04:20:14;17.70;99.90
31309;DHT22;17936;52.446;10.840;2023-06-22T04:22:39;17.80;99.90
31309;DHT22;17936;52.446;10.840;2023-06-22T04:25:06;17.70;99.90
31309;DHT22;17936;52.446;10.840;2023-06-22T04:27:33;18.10;99.90
31309;DHT22;17936;52.446;10.840;2023-06-22T04:30:03;18.10;99.90
31309;DHT22;17936;52.446;10.840;2023-06-22T04:32:29;18.00;99.90
31309;DHT22;17936;52.446;10.840;2023-06-22T04:34:54;18.10;99.90
31309;DHT22;17936;52.446;10.840;2023-06-22T04:37:20;18.20;99.90
31309;DHT22;17936;52.446;10.840;2023-06-22T04:39:49;18.40;99.90
31309;DHT22;17936;52.446;10.840;2023-06-22T04:42:14;18.50;99.90
31309;DHT22;17936;52.446;10.840;2023-06-22T04:44:40;18.70;99.90
31309;DHT22;17936;52.446;10.840;2023-06-22T04:47:07;18.70;99.90
31309;DHT22;17936;52.446;10.840;2023-06-22T04:49:34;19.00;99.90
31309;DHT22;17936;52.446;10.840;2023-06-22T04:52:05;19.30;99.90
31309;DHT22;17936;52.446;10.840;2023-06-22T04:54:31;19.30;99.90
31309;DHT22;17936;52.446;10.840;2023-06-22T04:57:03;19.50;99.90
31309;DHT22;17936;52.446;10.840;2023-06-22T04:59:30;19.60;99.90
31309;DHT22;17936;52.446;10.840;2023-06-22T05:01:57;19.50;99.90
31309;DHT22;17936;52.446;10.840;2023-06-22T05:04:23;19.50;99.90
31309;DHT22;17936;52.446;10.840;2023-06-22T05:06:49;19.60;99.90
31309;DHT22;17936;52.446;10.840;2023-06-22T05:09:15;20.00;99.90
31309;DHT22;17936;52.446;10.840;2023-06-22T05:11:41;20.10;99.90
31309;DHT22;17936;52.446;10.840;2023-06-22T05:14:07;20.00;99.90
31309;DHT22;17936;52.446;10.840;2023-06-22T05:16:33;19.80;99.90
31309;DHT22;17936;52.446;10.840;2023-06-22T05:18:58;20.00;99.90
31309;DHT22;17936;52.446;10.840;2023-06-22T05:21:25;20.00;99.90
31309;DHT22;17936;52.446;10.840;2023-06-22T05:23:52;19.70;99.90
31309;DHT22;17936;52.446;10.840;2023-06-22T05:26:18;19.80;99.90
31309;DHT22;17936;52.446;10.840;2023-06-22T05:28:44;19.70;99.90
31309;DHT22;17936;52.446;10.840;2023-06-22T05:31:14;19.70;99.90
31309;DHT22;17936;52.446;10.840;2023-06-22T05:33:42;19.70;99.90
31309;DHT22;17936;52.446;10.840;2023-06-22T05:36:08;19.70;99.90
31309;DHT22;17936;52.446;10.840;2023-06-22T05:38:34;19.60;99.90
31309;DHT22;17936;52.446;10.840;2023-06-22T05:40:59;19.60;99.90
31309;DHT22;17936;52.446;10.840;2023-06-22T05:43:25;19.60;99.90
31309;DHT22;17936;52.446;10.840;2023-06-22T05:45:50;19.60;99.90
31309;DHT22;17936;52.446;10.840;2023-06-22T05:48:16;19.80;99.90
31309;DHT22;17936;52.446;10.840;2023-06-22T05:50:42;19.90;99.90
31309;DHT22;17936;52.446;10.840;2023-06-22T05:53:07;19.90;99.90
31309;DHT22;17936;52.446;10.840;2023-06-22T05:55:33;20.00;99.90
31309;DHT22;17936;52.446;10.840;2023-06-22T05:57:59;20.10;99.90
31309;DHT22;17936;52.446;10.840;2023-06-22T06:00:24;20.40;99.90
31309;DHT22;17936;52.446;10.840;2023-06-22T06:02:50;20.90;99.90
31309;DHT22;17936;52.446;10.840;2023-06-22T06:05:15;21.60;99.90
31309;DHT22;17936;52.446;10.840;2023-06-22T06:07:45;21.70;99.90
31309;DHT22;17936;52.446;10.840;2023-06-22T06:10:11;21.70;99.90
31309;DHT22;17936;52.446;10.840;2023-06-22T06:12:36;21.90;99.90
31309;DHT22;17936;52.446;10.840;2023-06-22T06:15:02;21.70;99.90
31309;DHT22;17936;52.446;10.840;2023-06-22T06:17:28;21.60;99.90
31309;DHT22;17936;52.446;10.840;2023-06-22T06:19:54;21.40;99.90
31309;DHT22;17936;52.446;10.840;2023-06-22T06:22:19;21.50;99.90
31309;DHT22;17936;52.446;10.840;2023-06-22T06:24:46;21.70;99.90
31309;DHT22;17936;52.446;10.840;2023-06-22T06:27:13;21.30;99.90
31309;DHT22;17936;52.446;10.840;2023-06-22T06:29:38;21.50;99.90
31309;DHT22;17936;52.446;10.840;2023-06-22T06:32:04;21.80;99.90
31309;DHT22;17936;52.446;10.840;2023-06-22T06:34:29;21.90;99.90
31309;DHT22;17936;52.446;10.840;2023-06-22T06:36:55;22.10;99.90
31309;DHT22;17936;52.446;10.840;2023-06-22T06:39:20;22.20;99.90
31309;DHT22;17936;52.446;10.840;2023-06-22T06:41:46;22.30;99.90
31309;DHT22;17936;52.446;10.840;2023-06-22T06:44:12;22.30;99.90
31309;DHT22;17936;52.446;10.840;2023-06-22T06:46:37;21.90;99.90
31309;DHT22;17936;52.446;10.840;2023-06-22T06:49:03;21.90;99.90
31309;DHT22;17936;52.446;10.840;2023-06-22T06:51:28;22.20;99.90
31309;DHT22;17936;52.446;10.840;2023-06-22T06:53:54;22.10;99.90
31309;DHT22;17936;52.446;10.840;2023-06-22T06:56:20;22.30;99.90
31309;DHT22;17936;52.446;10.840;2023-06-22T06:58:46;22.40;99.90
31309;DHT22;17936;52.446;10.840;2023-06-22T07:01:12;22.40;99.90
31309;DHT22;17936;52.446;10.840;2023-06-22T07:03:38;22.40;99.90
31309;DHT22;17936;52.446;10.840;2023-06-22T07:06:04;22.40;99.90
31309;DHT22;17936;52.446;10.840;2023-06-22T07:08:29;22.60;99.90
31309;DHT22;17936;52.446;10.840;2023-06-22T07:10:55;22.60;99.90
31309;DHT22;17936;52.446;10.840;2023-06-22T07:13:21;22.60;99.90
31309;DHT22;17936;52.446;10.840;2023-06-22T07:15:46;22.60;99.90
31309;DHT22;17936;52.446;10.840;2023-06-22T07:18:12;22.90;99.90
31309;DHT22;17936;52.446;10.840;2023-06-22T07:20:37;22.90;99.90
31309;DHT22;17936;52.446;10.840;2023-06-22T07:23:04;23.40;99.90
31309;DHT22;17936;52.446;10.840;2023-06-22T07:25:30;23.90;99.90
31309;DHT22;17936;52.446;10.840;2023-06-22T07:28:03;24.10;99.90
31309;DHT22;17936;52.446;10.840;2023-06-22T07:30:30;24.10;99.90
31309;DHT22;17936;52.446;10.840;2023-06-22T07:32:57;24.40;99.90
31309;DHT22;17936;52.446;10.840;2023-06-22T07:35:23;24.30;99.90
31309;DHT22;17936;52.446;10.840;2023-06-22T07:37:49;24.20;99.90
31309;DHT22;17936;52.446;10.840;2023-06-22T07:40:15;24.20;99.90
31309;DHT22;17936;52.446;10.840;2023-06-22T07:42:40;24.20;99.90
31309;DHT22;17936;52.446;10.840;2023-06-22T07:45:06;24.30;99.90
31309;DHT22;17936;52.446;10.840;2023-06-22T07:47:34;24.10;99.90
31309;DHT22;17936;52.446;10.840;2023-06-22T07:50:01;24.50;99.90
31309;DHT22;17936;52.446;10.840;2023-06-22T07:52:27;24.70;99.90
31309;DHT22;17936;52.446;10.840;2023-06-22T07:54:53;24.90;99.90
31309;DHT22;17936;52.446;10.840;2023-06-22T07:57:19;25.10;99.90
31309;DHT22;17936;52.446;10.840;2023-06-22T07:59:45;25.30;99.90
31309;DHT22;17936;52.446;10.840;2023-06-22T08:02:11;25.20;99.90
31309;DHT22;17936;52.446;10.840;2023-06-22T08:04:37;24.90;99.90
31309;DHT22;17936;52.446;10.840;2023-06-22T08:07:03;25.30;99.90
31309;DHT22;17936;52.446;10.840;2023-06-22T08:09:30;25.10;99.90
31309;DHT22;17936;52.446;10.840;2023-06-22T08:11:56;25.00;99.90
31309;DHT22;17936;52.446;10.840;2023-06-22T08:14:23;24.80;99.90
31309;DHT22;17936;52.446;10.840;2023-06-22T08:16:48;25.00;99.90
31309;DHT22;17936;52.446;10.840;2023-06-22T08:19:14;25.10;99.90
31309;DHT22;17936;52.446;10.840;2023-06-22T08:21:39;25.20;99.90
31309;DHT22;17936;52.446;10.840;2023-06-22T08:24:05;25.00;99.90
31309;DHT22;17936;52.446;10.840;2023-06-22T08:26:32;25.20;99.90
31309;DHT22;17936;52.446;10.840;2023-06-22T08:29:01;24.90;99.90
31309;DHT22;17936;52.446;10.840;2023-06-22T08:31:27;24.90;99.90
31309;DHT22;17936;52.446;10.840;2023-06-22T08:33:52;24.90;99.90
31309;DHT22;17936;52.446;10.840;2023-06-22T08:36:18;24.80;99.90
31309;DHT22;17936;52.446;10.840;2023-06-22T08:38:43;24.90;99.90
31309;DHT22;17936;52.446;10.840;2023-06-22T08:41:10;24.90;99.90
31309;DHT22;17936;52.446;10.840;2023-06-22T08:43:36;25.20;99.90
31309;DHT22;17936;52.446;10.840;2023-06-22T08:46:01;25.10;99.90
31309;DHT22;17936;52.446;10.840;2023-06-22T08:48:28;25.50;99.90
31309;DHT22;17936;52.446;10.840;2023-06-22T08:50:53;25.70;99.90
31309;DHT22;17936;52.446;10.840;2023-06-22T08:53:19;25.80;99.90
31309;DHT22;17936;52.446;10.840;2023-06-22T08:55:44;25.50;99.90
31309;DHT22;17936;52.446;10.840;2023-06-22T08:58:10;25.70;99.90
31309;DHT22;17936;52.446;10.840;2023-06-22T09:00:36;25.80;99.90
31309;DHT22;17936;52.446;10.840;2023-06-22T09:03:01;25.70;99.90
31309;DHT22;17936;52.446;10.840;2023-06-22T09:05:28;25.50;99.90
31309;DHT22;17936;52.446;10.840;2023-06-22T09:07:56;25.40;99.90
31309;DHT22;17936;52.446;10.840;2023-06-22T09:10:24;25.70;99.90
31309;DHT22;17936;52.446;10.840;2023-06-22T09:12:49;25.50;99.90
31309;DHT22;17936;52.446;10.840;2023-06-22T09:15:15;25.90;99.90
31309;DHT22;17936;52.446;10.840;2023-06-22T09:17:41;25.70;99.90
31309;DHT22;17936;52.446;10.840;2023-06-22T09:20:07;25.50;99.90
31309;DHT22;17936;52.446;10.840;2023-06-22T09:22:35;25.90;99.90
31309;DHT22;17936;52.446;10.840;2023-06-22T09:25:01;25.70;99.90
31309;DHT22;17936;52.446;10.840;2023-06-22T09:27:28;25.40;99.90
31309;DHT22;17936;52.446;10.840;2023-06-22T09:29:53;25.70;99.90
31309;DHT22;17936;52.446;10.840;2023-06-22T09:32:19;25.80;99.90
31309;DHT22;17936;52.446;10.840;2023-06-22T09:34:44;26.00;99.90
31309;DHT22;17936;52.446;10.840;2023-06-22T09:37:10;26.10;99.90
31309;DHT22;17936;52.446;10.840;2023-06-22T09:39:35;26.60;99.90
31309;DHT22;17936;52.446;10.840;2023-06-22T09:42:02;26.60;99.90
31309;DHT22;17936;52.446;10.840;2023-06-22T09:44:27;27.00;99.90
31309;DHT22;17936;52.446;10.840;2023-06-22T09:46:53;26.80;99.90
31309;DHT22;17936;52.446;10.840;2023-06-22T09:49:18;27.20;99.90
31309;DHT22;17936;52.446;10.840;2023-06-22T09:51:44;27.40;99.90
31309;DHT22;17936;52.446;10.840;2023-06-22T09:54:09;27.10;99.90
31309;DHT22;17936;52.446;10.840;2023-06-22T09:56:35;27.20;99.90
31309;DHT22;17936;52.446;10.840;2023-06-22T09:59:02;27.60;99.90
31309;DHT22;17936;52.446;10.840;2023-06-22T10:01:28;27.40;99.90
31309;DHT22;17936;52.446;10.840;2023-06-22T10:03:55;27.20;99.90
31309;DHT22;17936;52.446;10.840;2023-06-22T10:06:21;28.20;99.90
31309;DHT22;17936;52.446;10.840;2023-06-22T10:08:47;29.20;99.90
31309;DHT22;17936;52.446;10.840;2023-06-22T10:11:14;28.90;99.90
31309;DHT22;17936;52.446;10.840;2023-06-22T10:13:39;28.30;99.90
31309;DHT22;17936;52.446;10.840;2023-06-22T10:16:05;27.80;99.90
31309;DHT22;17936;52.446;10.840;2023-06-22T10:18:30;27.40;99.90
31309;DHT22;17936;52.446;10.840;2023-06-22T10:20:56;27.50;99.90
31309;DHT22;17936;52.446;10.840;2023-06-22T10:23:22;27.60;99.90
31309;DHT22;17936;52.446;10.840;2023-06-22T10:25:47;28.10;99.90
31309;DHT22;17936;52.446;10.840;2023-06-22T10:28:13;27.90;99.90
31309;DHT22;17936;52.446;10.840;2023-06-22T10:30:40;27.90;99.90
31309;DHT22;17936;52.446;10.840;2023-06-22T10:33:09;28.00;99.90
31309;DHT22;17936;52.446;10.840;2023-06-22T10:35:36;28.40;99.90
31309;DHT22;17936;52.446;10.840;2023-06-22T10:38:03;28.90;99.90
31309;DHT22;17936;52.446;10.840;2023-06-22T10:40:28;29.20;99.90
31309;DHT22;17936;52.446;10.840;2023-06-22T10:42:54;29.00;99.90
31309;DHT22;17936;52.446;10.840;2023-06-22T10:45:20;28.40;99.90
31309;DHT22;17936;52.446;10.840;2023-06-22T10:47:45;28.60;99.90
31309;DHT22;17936;52.446;10.840;2023-06-22T10:50:11;28.80;99.90
31309;DHT22;17936;52.446;10.840;2023-06-22T10:52:37;28.20;99.90
31309;DHT22;17936;52.446;10.840;2023-06-22T10:55:02;28.20;99.90
31309;DHT22;17936;52.446;10.840;2023-06-22T10:57:28;29.20;99.90
31309;DHT22;17936;52.446;10.840;2023-06-22T10:59:53;28.40;99.90
31309;DHT22;17936;52.446;10.840;2023-06-22T11:02:19;28.10;99.90
31309;DHT22;17936;52.446;10.840;2023-06-22T11:04:44;27.80;99.90
31309;DHT22;17936;52.446;10.840;2023-06-22T11:07:11;28.00;99.90
31309;DHT22;17936;52.446;10.840;2023-06-22T11:09:36;27.90;99.90
31309;DHT22;17936;52.446;10.840;2023-06-22T11:12:03;27.90;99.90
31309;DHT22;17936;52.446;10.840;2023-06-22T11:14:29;27.80;99.90
31309;DHT22;17936;52.446;10.840;2023-06-22T11:16:55;27.90;99.90
31309;DHT22;17936;52.446;10.840;2023-06-22T11:19:21;27.40;99.90
31309;DHT22;17936;52.446;10.840;2023-06-22T11:21:47;27.20;99.90
31309;DHT22;17936;52.446;10.840;2023-06-22T11:24:12;26.90;99.90
31309;DHT22;17936;52.446;10.840;2023-06-22T11:26:38;27.00;99.90
31309;DHT22;17936;52.446;10.840;2023-06-22T11:29:03;27.10;99.90
31309;DHT22;17936;52.446;10.840;2023-06-22T11:31:31;27.00;99.90
31309;DHT22;17936;52.446;10.840;2023-06-22T11:33:57;26.90;99.90
31309;DHT22;17936;52.446;10.840;2023-06-22T11:36:22;26.90;99.90
31309;DHT22;17936;52.446;10.840;2023-06-22T11:38:48;26.90;99.90
31309;DHT22;17936;52.446;10.840;2023-06-22T11:41:14;27.10;99.90
31309;DHT22;17936;52.446;10.840;2023-06-22T11:43:39;26.90;99.90
31309;DHT22;17936;52.446;10.840;2023-06-22T11:46:05;27.20;99.90
31309;DHT22;17936;52.446;10.840;2023-06-22T11:48:31;27.40;99.90
31309;DHT22;17936;52.446;10.840;2023-06-22T11:50:57;27.70;99.90
31309;DHT22;17936;52.446;10.840;2023-06-22T11:53:25;28.10;99.90
31309;DHT22;17936;52.446;10.840;2023-06-22T11:55:51;28.50;99.90
31309;DHT22;17936;52.446;10.840;2023-06-22T11:58:18;28.40;99.90
31309;DHT22;17936;52.446;10.840;2023-06-22T12:00:43;28.30;99.90
31309;DHT22;17936;52.446;10.840;2023-06-22T12:03:10;28.70;99.90
31309;DHT22;17936;52.446;10.840;2023-06-22T12:05:37;28.70;99.90
31309;DHT22;17936;52.446;10.840;2023-06-22T12:08:03;28.80;99.90
31309;DHT22;17936;52.446;10.840;2023-06-22T12:10:29;28.70;99.90
31309;DHT22;17936;52.446;10.840;2023-06-22T12:12:54;28.70;99.90
31309;DHT22;17936;52.446;10.840;2023-06-22T12:15:20;28.50;99.90
31309;DHT22;17936;52.446;10.840;2023-06-22T12:17:46;28.70;99.90
31309;DHT22;17936;52.446;10.840;2023-06-22T12:20:13;28.80;99.90
31309;DHT22;17936;52.446;10.840;2023-06-22T12:22:40;29.50;99.90
31309;DHT22;17936;52.446;10.840;2023-06-22T12:25:07;29.70;99.90
31309;DHT22;17936;52.446;10.840;2023-06-22T12:27:32;29.80;99.90
31309;DHT22;17936;52.446;10.840;2023-06-22T12:29:58;29.60;99.90
31309;DHT22;17936;52.446;10.840;2023-06-22T12:32:23;29.10;99.90
31309;DHT22;17936;52.446;10.840;2023-06-22T12:34:49;28.80;99.90
31309;DHT22;17936;52.446;10.840;2023-06-22T12:37:15;28.70;99.90
31309;DHT22;17936;52.446;10.840;2023-06-22T12:39:41;29.20;99.90
31309;DHT22;17936;52.446;10.840;2023-06-22T12:42:07;29.20;99.90
31309;DHT22;17936;52.446;10.840;2023-06-22T12:44:34;29.20;99.90
31309;DHT22;17936;52.446;10.840;2023-06-22T12:47:00;28.50;99.90
31309;DHT22;17936;52.446;10.840;2023-06-22T12:49:25;29.10;99.90
31309;DHT22;17936;52.446;10.840;2023-06-22T12:51:51;29.00;99.90
31309;DHT22;17936;52.446;10.840;2023-06-22T12:54:16;28.90;99.90
31309;DHT22;17936;52.446;10.840;2023-06-22T12:56:42;29.60;99.90
31309;DHT22;17936;52.446;10.840;2023-06-22T12:59:10;28.50;99.90
31309;DHT22;17936;52.446;10.840;2023-06-22T13:01:35;28.80;99.90
31309;DHT22;17936;52.446;10.840;2023-06-22T13:04:02;29.10;99.90
31309;DHT22;17936;52.446;10.840;2023-06-22T13:06:28;29.30;99.90
31309;DHT22;17936;52.446;10.840;2023-06-22T13:08:53;28.90;99.90
31309;DHT22;17936;52.446;10.840;2023-06-22T13:11:19;28.90;99.90
31309;DHT22;17936;52.446;10.840;2023-06-22T13:13:45;28.30;99.90
31309;DHT22;17936;52.446;10.840;2023-06-22T13:16:11;28.60;99.90
31309;DHT22;17936;52.446;10.840;2023-06-22T13:18:36;29.00;99.90
31309;DHT22;17936;52.446;10.840;2023-06-22T13:21:02;29.20;99.90
31309;DHT22;17936;52.446;10.840;2023-06-22T13:23:28;28.70;99.90
31309;DHT22;17936;52.446;10.840;2023-06-22T13:25:54;28.10;99.90
31309;DHT22;17936;52.446;10.840;2023-06-22T13:28:19;27.60;99.90
31309;DHT22;17936;52.446;10.840;2023-06-22T13:30:46;27.60;99.90
31309;DHT22;17936;52.446;10.840;2023-06-22T13:33:13;27.30;99.90
31309;DHT22;17936;52.446;10.840;2023-06-22T13:35:39;27.30;99.90
31309;DHT22;17936;52.446;10.840;2023-06-22T13:38:05;27.30;99.90
31309;DHT22;17936;52.446;10.840;2023-06-22T13:40:30;27.50;99.90
31309;DHT22;17936;52.446;10.840;2023-06-22T13:42:56;27.70;99.90
31309;DHT22;17936;52.446;10.840;2023-06-22T13:45:22;27.60;99.90
31309;DHT22;17936;52.446;10.840;2023-06-22T13:47:48;27.70;99.90
31309;DHT22;17936;52.446;10.840;2023-06-22T13:50:13;27.60;99.90
31309;DHT22;17936;52.446;10.840;2023-06-22T13:52:39;28.20;99.90
31309;DHT22;17936;52.446;10.840;2023-06-22T13:55:05;28.10;99.90
31309;DHT22;17936;52.446;10.840;2023-06-22T13:57:32;28.40;99.90
31309;DHT22;17936;52.446;10.840;2023-06-22T13:59:59;28.50;99.90
31309;DHT22;17936;52.446;10.840;2023-06-22T14:02:26;28.40;99.90
31309;DHT22;17936;52.446;10.840;2023-06-22T14:04:52;28.50;99.90
31309;DHT22;17936;52.446;10.840;2023-06-22T14:07:17;28.30;99.90
31309;DHT22;17936;52.446;10.840;2023-06-22T14:09:44;28.40;99.90
31309;DHT22;17936;52.446;10.840;2023-06-22T14:12:10;28.90;99.90
31309;DHT22;17936;52.446;10.840;2023-06-22T14:14:36;28.10;99.90
31309;DHT22;17936;52.446;10.840;2023-06-22T14:17:02;27.50;99.90
31309;DHT22;17936;52.446;10.840;2023-06-22T14:19:28;27.10;99.90
31309;DHT22;17936;52.446;10.840;2023-06-22T14:21:54;27.40;99.90
31309;DHT22;17936;52.446;10.840;2023-06-22T14:24:19;27.20;99.90
31309;DHT22;17936;52.446;10.840;2023-06-22T14:26:45;27.40;99.90
31309;DHT22;17936;52.446;10.840;2023-06-22T14:29:10;27.50;99.90
31309;DHT22;17936;52.446;10.840;2023-06-22T14:31:36;27.10;99.90
31309;DHT22;17936;52.446;10.840;2023-06-22T14:34:01;27.10;99.90
31309;DHT22;17936;52.446;10.840;2023-06-22T14:36:28;27.10;99.90
31309;DHT22;17936;52.446;10.840;2023-06-22T14:38:54;27.20;99.90
31309;DHT22;17936;52.446;10.840;2023-06-22T14:41:19;27.40;99.90
31309;DHT22;17936;52.446;10.840;2023-06-22T14:43:46;27.80;99.90
31309;DHT22;17936;52.446;10.840;2023-06-22T14:46:12;28.40;99.90
31309;DHT22;17936;52.446;10.840;2023-06-22T14:48:38;28.80;99.90
31309;DHT22;17936;52.446;10.840;2023-06-22T14:51:04;28.40;99.90
31309;DHT22;17936;52.446;10.840;2023-06-22T14:53:29;28.30;99.90
31309;DHT22;17936;52.446;10.840;2023-06-22T14:55:55;27.80;99.90
31309;DHT22;17936;52.446;10.840;2023-06-22T14:58:20;27.40;99.90
31309;DHT22;17936;52.446;10.840;2023-06-22T15:00:46;27.10;99.90
31309;DHT22;17936;52.446;10.840;2023-06-22T15:03:11;27.60;99.90
31309;DHT22;17936;52.446;10.840;2023-06-22T15:05:42;27.90;99.90
31309;DHT22;17936;52.446;10.840;2023-06-22T15:08:08;27.90;99.90
31309;DHT22;17936;52.446;10.840;2023-06-22T15:10:34;28.20;99.90
31309;DHT22;17936;52.446;10.840;2023-06-22T15:12:59;27.80;99.90